QGU weather

Gifu Airport
Gifu, Gifu Prefecture, Japan

Public forecast

Using degrees Celsius for public forecast. Weather courtesy of forecast.io.

Current aviation weather report (METAR) for Gifu Airport

Report is more than 6 hours old.

Retrieved 2020/04/07 05:16 UTC (1 day ago):

RJNG 070516Z 26007KT 220V280 9999 SCT150 BKN230 19/M08 Q1011 RMK 3AC150 A2987

Closest aviation forecast (TAF) to Gifu Airport

Closest forecast is Chubu Centrair International Airport, 32.3 nm (59.9 km) S. Retrieved 2020/04/08 06:30 UTC (2 hours ago):

TAF RJGG 080505Z 0806/0912 16010KT 9999 FEW020 BKN040 BECMG 0808/0810 32022KT BECMG 0900/0903 30012KT BECMG 0906/0909 32024KT